熊本空港の過去48時間の天気

熊本空港 (Kumamoto)

現在時刻: 9/17 00:14 JST (9/16 15:14 UTC) 以下の時間は現地時間です。

過去48時間のMETAR気象情報
時間 風向 風速(m/s) 視程 気温(℃) 湿度(%) 気圧(hPa) 天気現象
16 21:00 2 10km以上 22 73 1007
16 20:00 北北東 4 10km以上 23 69 1007
16 19:00 北北東 5 10km以上 24 65 1006
16 18:00 北北東 7 10km以上 26 54 1006
16 17:00 北北東 6 10km以上 28 48 1005
16 16:00 北北東 6 10km以上 29 52 1004
16 15:00 6 10km以上 30 46 1004
16 14:00 5 10km以上 31 46 1004
16 13:00 北北東 6 10km以上 31 49 1005
16 12:00 5 10km以上 30 52 1005
16 11:00 5 10km以上 29 58 1006
16 10:00 3 10km以上 28 66 1006
16 09:00 2 10km以上 27 70 1006
16 08:00 不定 1 10km以上 26 74 1006
16 07:00 不定 1 10km以上 23 89 1006
16 06:10 北北西 2 10km以上 22 94 1006
15 21:00 北東 4 10km以上 26 65 1007
15 20:00 北東 4 10km以上 26 65 1006
15 19:00 北東 4 10km以上 28 58 1006 周辺で火山灰
15 18:00 東北東 4 10km以上 28 66 1005 火山灰
15 17:00 南東 2 10km以上 31 55 1005
15 16:00 東北東 2 10km以上 31 62 1005
15 15:00 3 10km以上 30 66 1005 弱いしゅう雨
15 14:00 北西 2 10km以上 32 56 1006
15 13:00 北東 2 10km以上 33 56 1006
15 12:00 不定 2 10km以上 31 55 1007
15 11:00 東北東 3 10km以上 31 55 1008
15 10:00 北北東 3 10km以上 29 62 1009
15 09:00 東北東 3 10km以上 28 66 1009
15 08:00 北北東 4 10km以上 25 74 1009
15 07:00 東北東 2 10km以上 24 78 1009 火山灰
15 06:10 2 10km以上 22 88 1009
RJFT 161200Z 01004KT 340V050 9999 FEW030 22/17 Q1007
RJFT 161100Z 02007KT 9999 FEW030 23/17 Q1007
RJFT 161000Z 02009KT 9999 FEW035 24/17 Q1006
RJFT 160900Z 03013KT 9999 FEW045 26/16 Q1006
RJFT 160800Z 03012KT 9999 FEW045 28/16 Q1005
RJFT 160700Z 03011KT 9999 FEW045 29/18 Q1004
RJFT 160600Z 01011KT 330V050 9999 FEW045 30/17 Q1004
RJFT 160500Z 36009KT 330V050 9999 FEW045 31/18 Q1004
RJFT 160400Z 02012KT 9999 SCT045 31/19 Q1005
RJFT 160300Z 01009KT 330V050 9999 SCT045 30/19 Q1005
RJFT 160200Z 36009KT 320V050 9999 SCT040 29/20 Q1006
RJFT 160100Z 35006KT 290V060 9999 BKN030 28/21 Q1006
RJFT 160000Z 01004KT 310V050 9999 FEW030 27/21 Q1006
RJFT 152300Z VRB02KT 9999 FEW030 26/21 Q1006
RJFT 152200Z VRB02KT 9999 FEW030 23/21 Q1006
RJFT 152110Z 34003KT 9999 FEW035 22/21 Q1006 RMK 1CU035 A2971
RJFT 151200Z 04007KT 9999 FEW035 26/19 Q1007
RJFT 151100Z 04007KT 9999 FEW035 26/19 Q1006
RJFT 151000Z 04008KT 9999 VCVA FEW040 28/19 Q1006
RJFT 150900Z 06007KT 9999 VA FEW040 28/21 Q1005
RJFT 150800Z 13003KT 060V180 9999 FEW045 31/21 Q1005
RJFT 150700Z 06004KT 360V130 9999 FEW045 SCT070 31/23 Q1005
RJFT 150600Z 19005KT 9999 -SHRA SCT045 BKN050 30/23 Q1005
RJFT 150500Z 32004KT 250V010 9999 FEW045 BKN050 32/22 Q1006
RJFT 150400Z 04004KT 340V100 9999 SCT045 33/23 Q1006
RJFT 150300Z VRB04KT 9999 FEW040 31/21 Q1007
RJFT 150200Z 06005KT 330V100 9999 FEW035 31/21 Q1008
RJFT 150100Z 03006KT 350V050 9999 FEW020 29/21 Q1009
RJFT 150000Z 07005KT 020V100 CAVOK 28/21 Q1009
RJFT 142300Z 03008KT CAVOK 25/20 Q1009
RJFT 142200Z 06004KT 9999 VA FEW008 24/20 Q1009
RJFT 142110Z 08003KT 040V130 9999 FEW005 22/20 Q1009 RMK 1ST005 A2980 VOLCANIC ASH CLOUD E-S